sensor_id;sensor_type;location;lat;lon;timestamp;temperature;humidity
72604;DHT22;60645;56.968;24.196;2023-04-06T00:00:08;2.20;92.40
72604;DHT22;60645;56.968;24.196;2023-04-06T00:02:36;2.10;92.60
72604;DHT22;60645;56.968;24.196;2023-04-06T00:05:03;2.10;92.60
72604;DHT22;60645;56.968;24.196;2023-04-06T00:07:30;2.10;92.80
72604;DHT22;60645;56.968;24.196;2023-04-06T00:09:56;2.10;93.20
72604;DHT22;60645;56.968;24.196;2023-04-06T00:12:23;2.40;93.10
72604;DHT22;60645;56.968;24.196;2023-04-06T00:14:50;2.30;93.50
72604;DHT22;60645;56.968;24.196;2023-04-06T00:17:17;2.30;93.10
72604;DHT22;60645;56.968;24.196;2023-04-06T00:19:44;2.20;93.20
72604;DHT22;60645;56.968;24.196;2023-04-06T00:22:10;2.30;93.30
72604;DHT22;60645;56.968;24.196;2023-04-06T00:24:37;2.50;93.30
72604;DHT22;60645;56.968;24.196;2023-04-06T00:27:04;2.20;93.50
72604;DHT22;60645;56.968;24.196;2023-04-06T00:29:31;2.30;93.50
72604;DHT22;60645;56.968;24.196;2023-04-06T00:31:58;2.30;93.80
72604;DHT22;60645;56.968;24.196;2023-04-06T00:34:25;2.50;93.60
72604;DHT22;60645;56.968;24.196;2023-04-06T00:36:51;2.30;93.40
72604;DHT22;60645;56.968;24.196;2023-04-06T00:39:18;2.20;93.70
72604;DHT22;60645;56.968;24.196;2023-04-06T00:41:49;2.60;93.60
72604;DHT22;60645;56.968;24.196;2023-04-06T00:44:16;2.50;93.50
72604;DHT22;60645;56.968;24.196;2023-04-06T00:46:43;2.40;93.70
72604;DHT22;60645;56.968;24.196;2023-04-06T00:49:10;2.40;93.80
72604;DHT22;60645;56.968;24.196;2023-04-06T00:51:37;2.50;93.50
72604;DHT22;60645;56.968;24.196;2023-04-06T00:54:04;2.50;93.50
72604;DHT22;60645;56.968;24.196;2023-04-06T00:56:31;2.50;93.50
72604;DHT22;60645;56.968;24.196;2023-04-06T00:58:58;2.50;93.90
72604;DHT22;60645;56.968;24.196;2023-04-06T01:01:25;2.50;93.90
72604;DHT22;60645;56.968;24.196;2023-04-06T01:03:52;2.60;93.90
72604;DHT22;60645;56.968;24.196;2023-04-06T01:06:19;2.60;94.10
72604;DHT22;60645;56.968;24.196;2023-04-06T01:08:46;2.70;93.90
72604;DHT22;60645;56.968;24.196;2023-04-06T01:11:12;2.80;94.00
72604;DHT22;60645;56.968;24.196;2023-04-06T01:13:39;2.50;94.20
72604;DHT22;60645;56.968;24.196;2023-04-06T01:16:06;2.70;94.30
72604;DHT22;60645;56.968;24.196;2023-04-06T01:18:33;2.50;94.50
72604;DHT22;60645;56.968;24.196;2023-04-06T01:21:00;2.60;94.70
72604;DHT22;60645;56.968;24.196;2023-04-06T01:23:27;2.50;94.90
72604;DHT22;60645;56.968;24.196;2023-04-06T01:25:54;2.60;94.90
72604;DHT22;60645;56.968;24.196;2023-04-06T01:28:21;2.50;95.00
72604;DHT22;60645;56.968;24.196;2023-04-06T01:30:48;2.70;95.20
72604;DHT22;60645;56.968;24.196;2023-04-06T01:33:15;2.80;95.10
72604;DHT22;60645;56.968;24.196;2023-04-06T01:35:41;2.60;95.00
72604;DHT22;60645;56.968;24.196;2023-04-06T01:38:08;2.70;95.10
72604;DHT22;60645;56.968;24.196;2023-04-06T01:40:35;2.50;95.10
72604;DHT22;60645;56.968;24.196;2023-04-06T01:43:02;2.60;95.10
72604;DHT22;60645;56.968;24.196;2023-04-06T01:45:28;2.50;95.30
72604;DHT22;60645;56.968;24.196;2023-04-06T01:47:55;2.70;95.10
72604;DHT22;60645;56.968;24.196;2023-04-06T01:50:22;2.80;95.20
72604;DHT22;60645;56.968;24.196;2023-04-06T01:52:49;2.60;95.40
72604;DHT22;60645;56.968;24.196;2023-04-06T01:55:16;2.60;95.10
72604;DHT22;60645;56.968;24.196;2023-04-06T01:57:43;2.60;95.40
72604;DHT22;60645;56.968;24.196;2023-04-06T02:00:10;2.60;95.40
72604;DHT22;60645;56.968;24.196;2023-04-06T02:02:37;2.60;95.30
72604;DHT22;60645;56.968;24.196;2023-04-06T02:05:04;2.70;95.00
72604;DHT22;60645;56.968;24.196;2023-04-06T02:07:31;2.50;95.00
72604;DHT22;60645;56.968;24.196;2023-04-06T02:09:57;2.50;95.30
72604;DHT22;60645;56.968;24.196;2023-04-06T02:12:24;2.70;95.40
72604;DHT22;60645;56.968;24.196;2023-04-06T02:14:51;2.60;95.40
72604;DHT22;60645;56.968;24.196;2023-04-06T02:17:18;2.60;95.40
72604;DHT22;60645;56.968;24.196;2023-04-06T02:19:45;2.40;95.40
72604;DHT22;60645;56.968;24.196;2023-04-06T02:22:11;2.80;95.40
72604;DHT22;60645;56.968;24.196;2023-04-06T02:24:38;2.70;95.40
72604;DHT22;60645;56.968;24.196;2023-04-06T02:27:05;2.70;95.80
72604;DHT22;60645;56.968;24.196;2023-04-06T02:29:32;2.60;95.40
72604;DHT22;60645;56.968;24.196;2023-04-06T02:31:59;2.70;95.40
72604;DHT22;60645;56.968;24.196;2023-04-06T02:34:26;2.60;95.60
72604;DHT22;60645;56.968;24.196;2023-04-06T02:36:52;2.60;95.70
72604;DHT22;60645;56.968;24.196;2023-04-06T02:39:19;2.50;95.70
72604;DHT22;60645;56.968;24.196;2023-04-06T02:41:46;2.90;95.70
72604;DHT22;60645;56.968;24.196;2023-04-06T02:44:13;2.70;95.70
72604;DHT22;60645;56.968;24.196;2023-04-06T02:46:40;2.50;95.50
72604;DHT22;60645;56.968;24.196;2023-04-06T02:49:06;2.60;95.60
72604;DHT22;60645;56.968;24.196;2023-04-06T02:51:33;2.50;95.80
72604;DHT22;60645;56.968;24.196;2023-04-06T02:54:00;2.60;95.60
72604;DHT22;60645;56.968;24.196;2023-04-06T02:56:27;2.50;95.70
72604;DHT22;60645;56.968;24.196;2023-04-06T02:58:54;2.50;95.90
72604;DHT22;60645;56.968;24.196;2023-04-06T03:01:21;2.60;95.80
72604;DHT22;60645;56.968;24.196;2023-04-06T03:03:47;2.50;95.70
72604;DHT22;60645;56.968;24.196;2023-04-06T03:06:14;2.60;95.70
72604;DHT22;60645;56.968;24.196;2023-04-06T03:08:41;2.70;95.60
72604;DHT22;60645;56.968;24.196;2023-04-06T03:11:08;2.70;95.80
72604;DHT22;60645;56.968;24.196;2023-04-06T03:13:35;2.70;95.40
72604;DHT22;60645;56.968;24.196;2023-04-06T03:16:02;2.70;95.70
72604;DHT22;60645;56.968;24.196;2023-04-06T03:18:29;2.90;95.70
72604;DHT22;60645;56.968;24.196;2023-04-06T03:20:56;2.60;95.70
72604;DHT22;60645;56.968;24.196;2023-04-06T03:23:23;2.60;95.80
72604;DHT22;60645;56.968;24.196;2023-04-06T03:25:49;2.70;95.70
72604;DHT22;60645;56.968;24.196;2023-04-06T03:28:16;2.60;95.80
72604;DHT22;60645;56.968;24.196;2023-04-06T03:30:44;2.60;96.10
72604;DHT22;60645;56.968;24.196;2023-04-06T03:33:11;2.60;95.90
72604;DHT22;60645;56.968;24.196;2023-04-06T03:35:38;2.60;96.10
72604;DHT22;60645;56.968;24.196;2023-04-06T03:38:04;2.70;95.90
72604;DHT22;60645;56.968;24.196;2023-04-06T03:40:32;2.60;96.20
72604;DHT22;60645;56.968;24.196;2023-04-06T03:42:58;2.60;95.90
72604;DHT22;60645;56.968;24.196;2023-04-06T03:45:25;2.90;95.40
72604;DHT22;60645;56.968;24.196;2023-04-06T03:47:52;2.70;95.80
72604;DHT22;60645;56.968;24.196;2023-04-06T03:50:19;2.80;95.70
72604;DHT22;60645;56.968;24.196;2023-04-06T03:52:46;2.80;96.10
72604;DHT22;60645;56.968;24.196;2023-04-06T03:55:12;3.00;95.80
72604;DHT22;60645;56.968;24.196;2023-04-06T03:57:39;2.90;95.50
72604;DHT22;60645;56.968;24.196;2023-04-06T04:00:06;2.80;95.90
72604;DHT22;60645;56.968;24.196;2023-04-06T04:02:33;2.70;96.00
72604;DHT22;60645;56.968;24.196;2023-04-06T04:05:00;2.70;96.40
72604;DHT22;60645;56.968;24.196;2023-04-06T04:07:27;2.80;96.60
72604;DHT22;60645;56.968;24.196;2023-04-06T04:09:54;2.90;96.30
72604;DHT22;60645;56.968;24.196;2023-04-06T04:12:20;2.90;96.10
72604;DHT22;60645;56.968;24.196;2023-04-06T04:14:47;2.70;96.10
72604;DHT22;60645;56.968;24.196;2023-04-06T04:17:14;2.80;96.30
72604;DHT22;60645;56.968;24.196;2023-04-06T04:19:41;2.70;96.50
72604;DHT22;60645;56.968;24.196;2023-04-06T04:22:07;2.80;96.80
72604;DHT22;60645;56.968;24.196;2023-04-06T04:24:34;2.60;96.70
72604;DHT22;60645;56.968;24.196;2023-04-06T04:27:01;2.70;96.60
72604;DHT22;60645;56.968;24.196;2023-04-06T04:29:28;2.70;96.70
72604;DHT22;60645;56.968;24.196;2023-04-06T04:31:55;2.80;97.00
72604;DHT22;60645;56.968;24.196;2023-04-06T04:34:22;2.70;97.10
72604;DHT22;60645;56.968;24.196;2023-04-06T04:36:54;2.60;97.10
72604;DHT22;60645;56.968;24.196;2023-04-06T04:39:21;2.60;97.20
72604;DHT22;60645;56.968;24.196;2023-04-06T04:41:48;2.60;97.30
72604;DHT22;60645;56.968;24.196;2023-04-06T04:44:15;2.60;97.30
72604;DHT22;60645;56.968;24.196;2023-04-06T04:46:42;2.50;97.40
72604;DHT22;60645;56.968;24.196;2023-04-06T04:49:09;2.60;97.30
72604;DHT22;60645;56.968;24.196;2023-04-06T04:51:36;2.80;97.40
72604;DHT22;60645;56.968;24.196;2023-04-06T04:54:03;2.50;97.70
72604;DHT22;60645;56.968;24.196;2023-04-06T04:56:29;2.80;97.50
72604;DHT22;60645;56.968;24.196;2023-04-06T04:58:56;2.70;97.30
72604;DHT22;60645;56.968;24.196;2023-04-06T05:01:23;2.90;97.70
72604;DHT22;60645;56.968;24.196;2023-04-06T05:03:50;2.80;97.30
72604;DHT22;60645;56.968;24.196;2023-04-06T05:06:17;2.90;97.20
72604;DHT22;60645;56.968;24.196;2023-04-06T05:08:45;2.90;97.00
72604;DHT22;60645;56.968;24.196;2023-04-06T05:11:12;3.00;97.30
72604;DHT22;60645;56.968;24.196;2023-04-06T05:13:39;2.80;97.30
72604;DHT22;60645;56.968;24.196;2023-04-06T05:16:06;2.90;97.30
72604;DHT22;60645;56.968;24.196;2023-04-06T05:18:33;2.90;96.90
72604;DHT22;60645;56.968;24.196;2023-04-06T05:21:00;2.90;97.00
72604;DHT22;60645;56.968;24.196;2023-04-06T05:23:27;2.90;96.70
72604;DHT22;60645;56.968;24.196;2023-04-06T05:25:53;2.80;96.80
72604;DHT22;60645;56.968;24.196;2023-04-06T05:28:20;3.00;97.20
72604;DHT22;60645;56.968;24.196;2023-04-06T05:30:47;3.10;97.00
72604;DHT22;60645;56.968;24.196;2023-04-06T05:33:14;3.30;96.60
72604;DHT22;60645;56.968;24.196;2023-04-06T05:35:40;3.20;96.60
72604;DHT22;60645;56.968;24.196;2023-04-06T05:38:08;3.10;96.80
72604;DHT22;60645;56.968;24.196;2023-04-06T05:40:36;3.20;96.70
72604;DHT22;60645;56.968;24.196;2023-04-06T05:43:04;3.10;96.70
72604;DHT22;60645;56.968;24.196;2023-04-06T05:45:31;3.10;96.70
72604;DHT22;60645;56.968;24.196;2023-04-06T05:47:58;3.20;97.00
72604;DHT22;60645;56.968;24.196;2023-04-06T05:50:25;3.20;96.80
72604;DHT22;60645;56.968;24.196;2023-04-06T05:52:51;3.20;96.70
72604;DHT22;60645;56.968;24.196;2023-04-06T05:55:18;3.30;96.50
72604;DHT22;60645;56.968;24.196;2023-04-06T05:57:45;3.20;96.60
72604;DHT22;60645;56.968;24.196;2023-04-06T06:00:12;3.20;96.70
72604;DHT22;60645;56.968;24.196;2023-04-06T06:02:39;3.20;96.70
72604;DHT22;60645;56.968;24.196;2023-04-06T06:05:06;3.40;96.90
72604;DHT22;60645;56.968;24.196;2023-04-06T06:07:33;3.40;96.70
72604;DHT22;60645;56.968;24.196;2023-04-06T06:10:00;3.40;96.70
72604;DHT22;60645;56.968;24.196;2023-04-06T06:12:27;3.30;96.90
72604;DHT22;60645;56.968;24.196;2023-04-06T06:14:54;3.30;96.70
72604;DHT22;60645;56.968;24.196;2023-04-06T06:17:21;3.30;96.60
72604;DHT22;60645;56.968;24.196;2023-04-06T06:19:49;3.40;96.70
72604;DHT22;60645;56.968;24.196;2023-04-06T06:22:15;3.30;96.60
72604;DHT22;60645;56.968;24.196;2023-04-06T06:24:42;3.50;96.60
72604;DHT22;60645;56.968;24.196;2023-04-06T06:27:09;3.80;96.30
72604;DHT22;60645;56.968;24.196;2023-04-06T06:29:36;3.60;96.30
72604;DHT22;60645;56.968;24.196;2023-04-06T06:32:03;3.90;96.20
72604;DHT22;60645;56.968;24.196;2023-04-06T06:34:30;3.80;95.90
72604;DHT22;60645;56.968;24.196;2023-04-06T06:36:56;3.80;95.70
72604;DHT22;60645;56.968;24.196;2023-04-06T06:39:23;3.90;95.40
72604;DHT22;60645;56.968;24.196;2023-04-06T06:41:50;3.80;95.70
72604;DHT22;60645;56.968;24.196;2023-04-06T06:44:17;4.00;95.30
72604;DHT22;60645;56.968;24.196;2023-04-06T06:46:44;3.90;95.50
72604;DHT22;60645;56.968;24.196;2023-04-06T06:49:10;3.80;95.40
72604;DHT22;60645;56.968;24.196;2023-04-06T06:51:38;4.10;95.10
72604;DHT22;60645;56.968;24.196;2023-04-06T06:54:05;4.00;94.90
72604;DHT22;60645;56.968;24.196;2023-04-06T06:56:33;4.10;95.30
72604;DHT22;60645;56.968;24.196;2023-04-06T06:59:02;4.10;95.00
72604;DHT22;60645;56.968;24.196;2023-04-06T07:01:29;4.30;94.90
72604;DHT22;60645;56.968;24.196;2023-04-06T07:03:56;4.30;94.50
72604;DHT22;60645;56.968;24.196;2023-04-06T07:06:23;4.50;94.20
72604;DHT22;60645;56.968;24.196;2023-04-06T07:08:49;4.60;93.80
72604;DHT22;60645;56.968;24.196;2023-04-06T07:11:17;4.60;93.20
72604;DHT22;60645;56.968;24.196;2023-04-06T07:13:44;4.40;93.00
72604;DHT22;60645;56.968;24.196;2023-04-06T07:16:10;4.60;92.90
72604;DHT22;60645;56.968;24.196;2023-04-06T07:18:37;4.40;93.30
72604;DHT22;60645;56.968;24.196;2023-04-06T07:21:04;4.40;93.40
72604;DHT22;60645;56.968;24.196;2023-04-06T07:23:31;4.70;93.00
72604;DHT22;60645;56.968;24.196;2023-04-06T07:25:58;5.00;92.40
72604;DHT22;60645;56.968;24.196;2023-04-06T07:28:25;4.70;92.30
72604;DHT22;60645;56.968;24.196;2023-04-06T07:30:51;4.80;92.20
72604;DHT22;60645;56.968;24.196;2023-04-06T07:33:19;5.00;91.50
72604;DHT22;60645;56.968;24.196;2023-04-06T07:35:46;5.00;91.50
72604;DHT22;60645;56.968;24.196;2023-04-06T07:38:13;5.10;91.90
72604;DHT22;60645;56.968;24.196;2023-04-06T07:40:39;4.90;91.20
72604;DHT22;60645;56.968;24.196;2023-04-06T07:43:06;4.80;92.00
72604;DHT22;60645;56.968;24.196;2023-04-06T07:45:33;5.10;91.80
72604;DHT22;60645;56.968;24.196;2023-04-06T07:48:00;5.00;91.10
72604;DHT22;60645;56.968;24.196;2023-04-06T07:50:27;5.10;91.10
72604;DHT22;60645;56.968;24.196;2023-04-06T07:52:53;5.10;91.10
72604;DHT22;60645;56.968;24.196;2023-04-06T07:55:21;5.30;91.50
72604;DHT22;60645;56.968;24.196;2023-04-06T07:57:47;5.50;90.80
72604;DHT22;60645;56.968;24.196;2023-04-06T08:00:14;6.00;89.70
72604;DHT22;60645;56.968;24.196;2023-04-06T08:02:41;5.90;89.00
72604;DHT22;60645;56.968;24.196;2023-04-06T08:05:10;6.00;88.10
72604;DHT22;60645;56.968;24.196;2023-04-06T08:07:37;5.80;87.90
72604;DHT22;60645;56.968;24.196;2023-04-06T08:10:04;5.80;89.30
72604;DHT22;60645;56.968;24.196;2023-04-06T08:12:32;5.80;89.50
72604;DHT22;60645;56.968;24.196;2023-04-06T08:14:58;5.80;89.00
72604;DHT22;60645;56.968;24.196;2023-04-06T08:17:26;6.00;89.30
72604;DHT22;60645;56.968;24.196;2023-04-06T08:19:59;5.70;89.30
72604;DHT22;60645;56.968;24.196;2023-04-06T08:22:26;5.50;90.00
72604;DHT22;60645;56.968;24.196;2023-04-06T08:24:53;5.70;90.90
72604;DHT22;60645;56.968;24.196;2023-04-06T08:27:20;5.30;91.00
72604;DHT22;60645;56.968;24.196;2023-04-06T08:29:47;5.40;91.40
72604;DHT22;60645;56.968;24.196;2023-04-06T08:32:14;5.30;91.70
72604;DHT22;60645;56.968;24.196;2023-04-06T08:34:41;5.40;91.50
72604;DHT22;60645;56.968;24.196;2023-04-06T08:37:07;5.30;91.60
72604;DHT22;60645;56.968;24.196;2023-04-06T08:39:34;5.20;91.10
72604;DHT22;60645;56.968;24.196;2023-04-06T08:42:01;5.20;91.80
72604;DHT22;60645;56.968;24.196;2023-04-06T08:44:30;5.50;91.80
72604;DHT22;60645;56.968;24.196;2023-04-06T08:46:59;5.40;91.70
72604;DHT22;60645;56.968;24.196;2023-04-06T08:49:25;5.60;91.40
72604;DHT22;60645;56.968;24.196;2023-04-06T08:51:52;5.60;91.00
72604;DHT22;60645;56.968;24.196;2023-04-06T08:54:20;5.50;91.00
72604;DHT22;60645;56.968;24.196;2023-04-06T08:56:47;5.70;91.10
72604;DHT22;60645;56.968;24.196;2023-04-06T08:59:15;5.50;91.70
72604;DHT22;60645;56.968;24.196;2023-04-06T09:01:42;5.40;92.10
72604;DHT22;60645;56.968;24.196;2023-04-06T09:04:09;5.40;92.60
72604;DHT22;60645;56.968;24.196;2023-04-06T09:06:38;5.30;92.80
72604;DHT22;60645;56.968;24.196;2023-04-06T09:09:07;5.50;92.70
72604;DHT22;60645;56.968;24.196;2023-04-06T09:11:47;5.50;92.70
72604;DHT22;60645;56.968;24.196;2023-04-06T09:14:14;5.60;92.20
72604;DHT22;60645;56.968;24.196;2023-04-06T09:16:42;5.60;92.40
72604;DHT22;60645;56.968;24.196;2023-04-06T09:19:10;5.70;92.20
72604;DHT22;60645;56.968;24.196;2023-04-06T09:21:37;5.80;92.50
72604;DHT22;60645;56.968;24.196;2023-04-06T09:24:04;5.90;91.60
72604;DHT22;60645;56.968;24.196;2023-04-06T09:26:31;6.10;91.50
72604;DHT22;60645;56.968;24.196;2023-04-06T09:29:00;6.00;91.30
72604;DHT22;60645;56.968;24.196;2023-04-06T09:31:29;6.10;91.20
72604;DHT22;60645;56.968;24.196;2023-04-06T09:33:56;6.20;90.80
72604;DHT22;60645;56.968;24.196;2023-04-06T09:36:30;6.40;90.50
72604;DHT22;60645;56.968;24.196;2023-04-06T09:38:58;6.40;90.10
72604;DHT22;60645;56.968;24.196;2023-04-06T09:44:01;6.30;90.90
72604;DHT22;60645;56.968;24.196;2023-04-06T09:46:28;6.30;90.70
72604;DHT22;60645;56.968;24.196;2023-04-06T09:49:06;6.30;91.00
72604;DHT22;60645;56.968;24.196;2023-04-06T09:51:55;6.20;90.60
72604;DHT22;60645;56.968;24.196;2023-04-06T09:54:21;6.40;90.80
72604;DHT22;60645;56.968;24.196;2023-04-06T09:57:00;6.40;90.80
72604;DHT22;60645;56.968;24.196;2023-04-06T10:01:56;6.40;90.70
72604;DHT22;60645;56.968;24.196;2023-04-06T10:04:40;6.40;90.70
72604;DHT22;60645;56.968;24.196;2023-04-06T10:07:09;6.60;90.70
72604;DHT22;60645;56.968;24.196;2023-04-06T10:09:38;6.50;90.70
72604;DHT22;60645;56.968;24.196;2023-04-06T10:12:05;6.40;90.60
72604;DHT22;60645;56.968;24.196;2023-04-06T10:14:33;6.50;91.10
72604;DHT22;60645;56.968;24.196;2023-04-06T10:17:02;6.40;90.90
72604;DHT22;60645;56.968;24.196;2023-04-06T10:19:32;6.40;91.00
72604;DHT22;60645;56.968;24.196;2023-04-06T10:22:00;6.30;91.30
72604;DHT22;60645;56.968;24.196;2023-04-06T10:24:29;6.40;91.40
72604;DHT22;60645;56.968;24.196;2023-04-06T10:26:56;6.40;91.50
72604;DHT22;60645;56.968;24.196;2023-04-06T10:29:24;6.30;91.50
72604;DHT22;60645;56.968;24.196;2023-04-06T10:31:51;6.40;91.40
72604;DHT22;60645;56.968;24.196;2023-04-06T10:34:17;6.60;91.50
72604;DHT22;60645;56.968;24.196;2023-04-06T10:36:44;6.60;91.20
72604;DHT22;60645;56.968;24.196;2023-04-06T10:39:11;6.70;90.90
72604;DHT22;60645;56.968;24.196;2023-04-06T10:41:42;6.60;90.90
72604;DHT22;60645;56.968;24.196;2023-04-06T10:44:16;6.70;91.50
72604;DHT22;60645;56.968;24.196;2023-04-06T10:46:51;6.50;91.60
72604;DHT22;60645;56.968;24.196;2023-04-06T10:49:18;6.70;91.20
72604;DHT22;60645;56.968;24.196;2023-04-06T10:51:50;6.60;91.20
72604;DHT22;60645;56.968;24.196;2023-04-06T10:54:17;6.70;91.00
72604;DHT22;60645;56.968;24.196;2023-04-06T10:56:44;6.70;90.20
72604;DHT22;60645;56.968;24.196;2023-04-06T10:59:11;6.70;90.70
72604;DHT22;60645;56.968;24.196;2023-04-06T11:01:38;6.60;91.20
72604;DHT22;60645;56.968;24.196;2023-04-06T11:04:04;6.70;91.00
72604;DHT22;60645;56.968;24.196;2023-04-06T11:06:31;6.90;90.90
72604;DHT22;60645;56.968;24.196;2023-04-06T11:08:58;6.70;90.90
72604;DHT22;60645;56.968;24.196;2023-04-06T11:11:26;6.70;90.60
72604;DHT22;60645;56.968;24.196;2023-04-06T11:13:57;6.80;90.60
72604;DHT22;60645;56.968;24.196;2023-04-06T11:16:27;6.60;90.90
72604;DHT22;60645;56.968;24.196;2023-04-06T11:18:55;6.60;90.80
72604;DHT22;60645;56.968;24.196;2023-04-06T11:21:39;6.80;90.60
72604;DHT22;60645;56.968;24.196;2023-04-06T11:26:40;6.70;90.70
72604;DHT22;60645;56.968;24.196;2023-04-06T11:29:07;7.00;90.70
72604;DHT22;60645;56.968;24.196;2023-04-06T11:31:37;7.00;90.40
72604;DHT22;60645;56.968;24.196;2023-04-06T11:34:19;7.00;89.50
72604;DHT22;60645;56.968;24.196;2023-04-06T11:36:47;7.00;89.40
72604;DHT22;60645;56.968;24.196;2023-04-06T11:39:18;7.10;89.50
72604;DHT22;60645;56.968;24.196;2023-04-06T11:41:48;7.30;89.00
72604;DHT22;60645;56.968;24.196;2023-04-06T11:44:26;7.40;88.80
72604;DHT22;60645;56.968;24.196;2023-04-06T11:46:53;7.20;88.70
72604;DHT22;60645;56.968;24.196;2023-04-06T11:49:20;7.00;89.40
72604;DHT22;60645;56.968;24.196;2023-04-06T11:51:47;7.10;89.80
72604;DHT22;60645;56.968;24.196;2023-04-06T11:54:14;7.00;89.90
72604;DHT22;60645;56.968;24.196;2023-04-06T11:56:46;7.20;89.50
72604;DHT22;60645;56.968;24.196;2023-04-06T11:59:12;7.10;89.80
72604;DHT22;60645;56.968;24.196;2023-04-06T12:01:45;7.00;89.40
72604;DHT22;60645;56.968;24.196;2023-04-06T12:04:12;6.90;89.30
72604;DHT22;60645;56.968;24.196;2023-04-06T12:06:39;7.20;89.60
72604;DHT22;60645;56.968;24.196;2023-04-06T12:09:06;7.50;89.20
72604;DHT22;60645;56.968;24.196;2023-04-06T12:11:33;7.40;88.70
72604;DHT22;60645;56.968;24.196;2023-04-06T12:13:59;7.40;88.80
72604;DHT22;60645;56.968;24.196;2023-04-06T12:16:28;7.20;89.40
72604;DHT22;60645;56.968;24.196;2023-04-06T12:18:55;7.10;89.50
72604;DHT22;60645;56.968;24.196;2023-04-06T12:21:22;7.10;89.90
72604;DHT22;60645;56.968;24.196;2023-04-06T12:23:49;7.40;89.30
72604;DHT22;60645;56.968;24.196;2023-04-06T12:26:16;7.30;89.40
72604;DHT22;60645;56.968;24.196;2023-04-06T12:28:42;7.20;89.60
72604;DHT22;60645;56.968;24.196;2023-04-06T12:31:18;7.20;89.60
72604;DHT22;60645;56.968;24.196;2023-04-06T12:33:51;7.10;89.40
72604;DHT22;60645;56.968;24.196;2023-04-06T12:36:19;7.20;89.40
72604;DHT22;60645;56.968;24.196;2023-04-06T12:38:49;7.30;88.90
72604;DHT22;60645;56.968;24.196;2023-04-06T12:41:17;7.30;88.60
72604;DHT22;60645;56.968;24.196;2023-04-06T12:43:44;7.20;88.80
72604;DHT22;60645;56.968;24.196;2023-04-06T12:46:11;7.40;89.00
72604;DHT22;60645;56.968;24.196;2023-04-06T12:48:38;7.40;88.90
72604;DHT22;60645;56.968;24.196;2023-04-06T12:51:05;7.50;88.70
72604;DHT22;60645;56.968;24.196;2023-04-06T12:53:39;7.50;88.50
72604;DHT22;60645;56.968;24.196;2023-04-06T12:56:15;7.60;88.70
72604;DHT22;60645;56.968;24.196;2023-04-06T12:58:44;7.40;88.20
72604;DHT22;60645;56.968;24.196;2023-04-06T13:01:11;7.40;88.60
72604;DHT22;60645;56.968;24.196;2023-04-06T13:03:40;7.20;89.00
72604;DHT22;60645;56.968;24.196;2023-04-06T13:06:07;7.30;89.10
72604;DHT22;60645;56.968;24.196;2023-04-06T13:08:37;7.20;89.30
72604;DHT22;60645;56.968;24.196;2023-04-06T13:11:05;7.30;88.90
72604;DHT22;60645;56.968;24.196;2023-04-06T13:13:34;7.30;89.20
72604;DHT22;60645;56.968;24.196;2023-04-06T13:16:03;7.30;89.50
72604;DHT22;60645;56.968;24.196;2023-04-06T13:18:31;7.20;90.10
72604;DHT22;60645;56.968;24.196;2023-04-06T13:20:58;7.20;90.10
72604;DHT22;60645;56.968;24.196;2023-04-06T13:23:28;7.30;89.50
72604;DHT22;60645;56.968;24.196;2023-04-06T13:25:59;7.30;89.40
72604;DHT22;60645;56.968;24.196;2023-04-06T13:28:27;7.30;89.50
72604;DHT22;60645;56.968;24.196;2023-04-06T13:30:54;7.40;89.90
72604;DHT22;60645;56.968;24.196;2023-04-06T13:33:21;7.30;89.80
72604;DHT22;60645;56.968;24.196;2023-04-06T13:35:48;7.30;90.00
72604;DHT22;60645;56.968;24.196;2023-04-06T13:38:14;7.40;89.80
72604;DHT22;60645;56.968;24.196;2023-04-06T13:40:42;7.30;90.00
72604;DHT22;60645;56.968;24.196;2023-04-06T13:43:09;7.20;89.90
72604;DHT22;60645;56.968;24.196;2023-04-06T13:45:37;7.50;89.30
72604;DHT22;60645;56.968;24.196;2023-04-06T13:48:04;7.70;88.80
72604;DHT22;60645;56.968;24.196;2023-04-06T13:50:31;7.60;88.60
72604;DHT22;60645;56.968;24.196;2023-04-06T13:52:58;7.60;88.60
72604;DHT22;60645;56.968;24.196;2023-04-06T13:55:25;7.70;88.90
72604;DHT22;60645;56.968;24.196;2023-04-06T13:57:52;7.50;88.90
72604;DHT22;60645;56.968;24.196;2023-04-06T14:00:19;7.60;88.40
72604;DHT22;60645;56.968;24.196;2023-04-06T14:02:46;7.50;88.90
72604;DHT22;60645;56.968;24.196;2023-04-06T14:05:13;7.50;89.50
72604;DHT22;60645;56.968;24.196;2023-04-06T14:07:40;7.60;89.50
72604;DHT22;60645;56.968;24.196;2023-04-06T14:10:07;7.30;89.70
72604;DHT22;60645;56.968;24.196;2023-04-06T14:12:43;7.40;90.00
72604;DHT22;60645;56.968;24.196;2023-04-06T14:15:11;7.40;90.00
72604;DHT22;60645;56.968;24.196;2023-04-06T14:17:38;7.50;89.50
72604;DHT22;60645;56.968;24.196;2023-04-06T14:20:05;7.40;89.70
72604;DHT22;60645;56.968;24.196;2023-04-06T14:22:32;7.70;89.30
72604;DHT22;60645;56.968;24.196;2023-04-06T14:24:59;7.50;89.60
72604;DHT22;60645;56.968;24.196;2023-04-06T14:27:27;7.50;89.30
72604;DHT22;60645;56.968;24.196;2023-04-06T14:29:53;7.50;89.40
72604;DHT22;60645;56.968;24.196;2023-04-06T14:32:20;7.30;89.90
72604;DHT22;60645;56.968;24.196;2023-04-06T14:34:49;7.30;89.90
72604;DHT22;60645;56.968;24.196;2023-04-06T14:37:16;7.30;89.70
72604;DHT22;60645;56.968;24.196;2023-04-06T14:39:44;7.30;90.10
72604;DHT22;60645;56.968;24.196;2023-04-06T14:42:11;7.20;90.10
72604;DHT22;60645;56.968;24.196;2023-04-06T14:44:37;7.30;89.60
72604;DHT22;60645;56.968;24.196;2023-04-06T14:47:09;7.40;89.10
72604;DHT22;60645;56.968;24.196;2023-04-06T14:49:36;7.30;89.10
72604;DHT22;60645;56.968;24.196;2023-04-06T14:52:03;7.20;89.20
72604;DHT22;60645;56.968;24.196;2023-04-06T14:54:29;7.50;89.30
72604;DHT22;60645;56.968;24.196;2023-04-06T14:56:56;7.60;88.60
72604;DHT22;60645;56.968;24.196;2023-04-06T14:59:23;7.50;88.50
72604;DHT22;60645;56.968;24.196;2023-04-06T15:01:50;7.50;88.50
72604;DHT22;60645;56.968;24.196;2023-04-06T15:04:18;7.50;88.80
72604;DHT22;60645;56.968;24.196;2023-04-06T15:06:45;7.50;88.90
72604;DHT22;60645;56.968;24.196;2023-04-06T15:09:11;7.50;89.00
72604;DHT22;60645;56.968;24.196;2023-04-06T15:11:39;7.50;88.60
72604;DHT22;60645;56.968;24.196;2023-04-06T15:14:05;7.60;88.80
72604;DHT22;60645;56.968;24.196;2023-04-06T15:16:32;7.60;88.90
72604;DHT22;60645;56.968;24.196;2023-04-06T15:19:02;7.70;88.60
72604;DHT22;60645;56.968;24.196;2023-04-06T15:21:29;7.70;88.60
72604;DHT22;60645;56.968;24.196;2023-04-06T15:23:57;7.80;88.00
72604;DHT22;60645;56.968;24.196;2023-04-06T15:26:24;7.70;88.00
72604;DHT22;60645;56.968;24.196;2023-04-06T15:28:52;7.70;88.50
72604;DHT22;60645;56.968;24.196;2023-04-06T15:31:19;7.60;88.70
72604;DHT22;60645;56.968;24.196;2023-04-06T15:34:03;7.50;88.90
72604;DHT22;60645;56.968;24.196;2023-04-06T15:36:30;7.50;89.20
72604;DHT22;60645;56.968;24.196;2023-04-06T15:38:57;7.50;89.30